»·PEaware :: AAL198 KSFO-KSMX

AAL198 :: KSFO-KSMX

FLIGHT INFORMATION

Flight Status: Arrived
Operator:
American Airlines
More flights by this operator :: More flights under this callsign
Pilot: Max W. (2591)
Aircraft: BOEING 767-300
(B763)
More flights by this aircraft type
Origin: KSFO San Francisco Intl
United States
Destination: KSMX Santa Maria Pub/Capt Hancock
United States
More flights between these airports :: More routes between these airports
Route: +SSTIK3 EBAYE
File this flight plan on PilotEdge
Remarks:
Altitude:
(Current/Filed)
25,000ft
Speed:
(Current/Filed)
450kts
Departed: 31-May-17 08:54 PM
Arrived: 31-May-17 09:37 PM
Distance/Time
Traveled:
187nm/0:43
Distance/Time
To Go:
Arrived

Flight Plot

Page will automatically refresh every two minutes.

Flight plan parsing failed; only flown route is shown


Map Options




Map Legend


Flown Route
Filed Route
Departure Airport
Arrival Airport
Navaid (VOR, NDB)
Fix

Horizontal Profiles

Position Reports

Time Latitude Longitude Heading Altitude Ground
Speed
31-May-17 20:41 37.617771 -122.382920 134 25ft 0kts
31-May-17 20:42 37.617771 -122.382920 134 25ft 0kts
31-May-17 20:43 37.617771 -122.382920 134 25ft 0kts
31-May-17 20:44 37.617771 -122.382920 134 24ft 0kts
31-May-17 20:45 37.617771 -122.382920 134 24ft 0kts
31-May-17 20:46 37.617771 -122.382920 134 24ft 0kts
31-May-17 20:47 37.617771 -122.382920 134 24ft 0kts
31-May-17 20:48 37.617868 -122.383042 134 24ft 2kts
31-May-17 20:49 37.618071 -122.383418 58 24ft 0kts
31-May-17 20:50 37.618071 -122.383418 58 24ft 0kts
31-May-17 20:51 37.618078 -122.383404 58 24ft 0kts
31-May-17 20:52 37.618879 -122.382675 25 24ft 7kts
31-May-17 20:53 37.619226 -122.380943 117 24ft 25kts
31-May-17 20:54 37.612644 -122.382269 208 24ft 30kts
31-May-17 20:55 37.609043 -122.382185 31 24ft 16kts
31-May-17 20:56 37.639496 -122.362350 19 500ft 182kts
31-May-17 20:57 37.690106 -122.368809 312 1141ft 208kts
31-May-17 20:58 37.674708 -122.434090 191 3163ft 261kts
31-May-17 20:59 37.601010 -122.439999 193 5507ft 277kts
31-May-17 21:00 37.525917 -122.462724 196 7906ft 283kts
31-May-17 21:01 37.456270 -122.427816 134 9936ft 302kts
31-May-17 21:02 37.392776 -122.342543 133 10669ft 373kts
31-May-17 21:03 37.320640 -122.244832 133 13104ft 391kts
31-May-17 21:04 37.245281 -122.143000 133 15330ft 406kts
31-May-17 21:05 37.167334 -122.037994 133 17321ft 421kts
31-May-17 21:06 37.086191 -121.929050 133 19145ft 436kts
31-May-17 21:07 37.002558 -121.816375 133 20810ft 450kts
31-May-17 21:08 36.916006 -121.700847 133 22356ft 463kts
31-May-17 21:09 36.826731 -121.582259 133 23770ft 475kts
31-May-17 21:10 36.735197 -121.461110 133 24990ft 488kts
31-May-17 21:11 36.638495 -121.333663 134 25022ft 526kts
31-May-17 21:12 36.537529 -121.201089 134 25000ft 529kts
31-May-17 21:13 36.436966 -121.069595 133 24542ft 523kts
31-May-17 21:14 36.345622 -120.938915 131 22990ft 497kts
31-May-17 21:15 36.257257 -120.811502 132 21467ft 483kts
31-May-17 21:16 36.170486 -120.687591 132 19940ft 470kts
31-May-17 21:17 36.086292 -120.567973 132 18429ft 457kts
31-May-17 21:18 36.004041 -120.451505 132 16922ft 444kts
31-May-17 21:19 35.923173 -120.338961 138 15414ft 432kts
31-May-17 21:20 35.818412 -120.281058 177 13926ft 410kts
31-May-17 21:21 35.707766 -120.294468 190 12458ft 396kts
31-May-17 21:22 35.600236 -120.315923 191 10959ft 388kts
31-May-17 21:23 35.504677 -120.335383 191 10069ft 302kts
31-May-17 21:24 35.426214 -120.351437 193 9842ft 279kts
31-May-17 21:25 35.372342 -120.408414 232 8198ft 266kts
31-May-17 21:26 35.326036 -120.476590 232 5520ft 259kts
31-May-17 21:27 35.281260 -120.542078 232 4930ft 237kts
31-May-17 21:28 35.239687 -120.602674 232 4169ft 230kts
31-May-17 21:29 35.205416 -120.652339 232 2960ft 227kts
31-May-17 21:30 35.140412 -120.690256 172 2875ft 222kts
31-May-17 21:31 35.082464 -120.667149 160 2954ft 214kts
31-May-17 21:32 35.045779 -120.628632 136 2963ft 209kts
31-May-17 21:33 34.998567 -120.572486 135 2880ft 190kts
31-May-17 21:34 34.968506 -120.536454 137 2022ft 178kts
31-May-17 21:35 34.927012 -120.487372 135 950ft 178kts
31-May-17 21:36 34.902690 -120.446150 126 816ft 177kts
31-May-17 21:37 34.870839 -120.410340 237 1072ft 170kts
31-May-17 21:38 34.895221 -120.448773 312 276ft 140kts
31-May-17 21:39 34.905632 -120.459593 51 272ft 16kts
31-May-17 21:40 34.904176 -120.455349 91 272ft 11kts

Navigation Log

Ident Type
Flight plan parsing failed, navigation log unavailable